createdAt,value
2018-09-13T00:01:59.069Z,7.10
2018-09-13T00:04:27.505Z,8.87
2018-09-13T00:06:55.973Z,8.50
2018-09-13T00:09:24.523Z,7.17
2018-09-13T00:11:52.980Z,7.47
2018-09-13T00:14:21.431Z,8.70
2018-09-13T00:16:49.956Z,7.33
2018-09-13T00:19:18.510Z,8.30
2018-09-13T00:21:46.959Z,8.50
2018-09-13T00:24:18.333Z,8.20
2018-09-13T00:26:46.799Z,7.63
2018-09-13T00:29:15.393Z,7.93
2018-09-13T00:31:43.856Z,6.57
2018-09-13T00:34:12.402Z,8.07
2018-09-13T00:36:40.852Z,8.20
2018-09-13T00:39:09.870Z,8.77
2018-09-13T00:41:38.978Z,8.17
2018-09-13T00:44:08.074Z,10.20
2018-09-13T00:46:36.882Z,8.87
2018-09-13T00:49:05.969Z,9.53
2018-09-13T00:51:34.836Z,7.80
2018-09-13T00:54:03.299Z,8.83
2018-09-13T00:56:31.729Z,8.77
2018-09-13T00:59:00.203Z,8.83
2018-09-13T01:01:28.647Z,9.80
2018-09-13T01:03:57.102Z,7.40
2018-09-13T01:06:25.569Z,8.70
2018-09-13T01:08:54.031Z,8.97
2018-09-13T01:11:22.614Z,8.80
2018-09-13T01:13:51.192Z,7.40
2018-09-13T01:16:19.659Z,8.10
2018-09-13T01:18:48.141Z,8.97
2018-09-13T01:21:16.600Z,8.50
2018-09-13T01:23:45.080Z,9.37
2018-09-13T01:26:13.830Z,7.97
2018-09-13T01:28:42.307Z,7.90
2018-09-13T01:31:10.773Z,7.40
2018-09-13T01:33:39.264Z,8.00
2018-09-13T01:36:07.714Z,7.73
2018-09-13T01:38:36.283Z,7.60
2018-09-13T01:41:04.779Z,7.60
2018-09-13T01:43:33.259Z,7.90
2018-09-13T01:46:01.730Z,7.30
2018-09-13T01:48:30.184Z,7.50
2018-09-13T01:50:58.622Z,8.10
2018-09-13T01:53:27.069Z,6.93
2018-09-13T01:55:55.526Z,7.10
2018-09-13T01:58:23.966Z,7.80
2018-09-13T02:00:52.464Z,8.27
2018-09-13T02:03:20.919Z,8.30
2018-09-13T02:05:49.524Z,7.80
2018-09-13T02:08:17.977Z,8.30
2018-09-13T02:10:46.452Z,8.73
2018-09-13T02:13:14.934Z,8.00
2018-09-13T02:15:43.392Z,8.03
2018-09-13T02:18:11.918Z,7.50
2018-09-13T02:20:40.380Z,9.83
2018-09-13T02:23:08.952Z,8.83
2018-09-13T02:25:37.391Z,8.50
2018-09-13T02:28:07.241Z,8.80
2018-09-13T02:30:35.697Z,9.03
2018-09-13T02:33:04.194Z,7.70
2018-09-13T02:35:32.665Z,8.27
2018-09-13T02:38:01.311Z,8.80
2018-09-13T02:40:29.831Z,8.27
2018-09-13T02:42:58.311Z,9.03
2018-09-13T02:45:26.762Z,8.37
2018-09-13T02:47:55.224Z,8.47
2018-09-13T02:50:23.947Z,8.10
2018-09-13T02:52:52.416Z,7.53
2018-09-13T02:55:20.886Z,8.33
2018-09-13T02:57:49.362Z,7.97
2018-09-13T03:00:17.795Z,8.60
2018-09-13T03:02:46.271Z,7.50
2018-09-13T03:05:14.736Z,6.30
2018-09-13T03:07:43.267Z,7.70
2018-09-13T03:10:11.710Z,7.73
2018-09-13T03:12:40.191Z,7.50
2018-09-13T03:15:09.349Z,7.63
2018-09-13T03:17:37.794Z,7.10
2018-09-13T03:20:06.574Z,7.80
2018-09-13T03:22:35.077Z,7.33
2018-09-13T03:25:03.784Z,7.97
2018-09-13T03:27:32.282Z,8.20
2018-09-13T03:30:00.806Z,7.77
2018-09-13T03:32:29.274Z,7.93
2018-09-13T03:34:57.864Z,8.50
2018-09-13T03:37:26.328Z,7.97
2018-09-13T03:39:54.974Z,6.73
2018-09-13T03:42:23.441Z,7.33
2018-09-13T03:44:51.943Z,7.73
2018-09-13T03:47:20.411Z,7.20
2018-09-13T03:49:48.863Z,7.10
2018-09-13T03:52:17.310Z,8.00
2018-09-13T03:54:45.813Z,8.10
2018-09-13T03:57:14.252Z,9.97
2018-09-13T03:59:42.733Z,9.50
2018-09-13T04:02:11.213Z,9.80
2018-09-13T04:04:39.653Z,10.53
2018-09-13T04:07:08.232Z,11.57
2018-09-13T04:09:36.777Z,11.63
2018-09-13T04:12:05.271Z,11.67
2018-09-13T04:14:33.770Z,10.97
2018-09-13T04:17:02.229Z,9.37
2018-09-13T04:19:35.739Z,9.87
2018-09-13T04:22:04.262Z,9.40
2018-09-13T04:24:32.686Z,9.60
2018-09-13T04:27:01.161Z,9.97
2018-09-13T04:29:29.681Z,9.50
2018-09-13T04:31:58.153Z,10.70
2018-09-13T04:34:26.611Z,10.00
2018-09-13T04:36:55.075Z,9.90
2018-09-13T04:39:23.557Z,9.70
2018-09-13T04:41:51.992Z,11.97
2018-09-13T04:44:20.480Z,11.87
2018-09-13T04:46:48.938Z,10.73
2018-09-13T04:49:17.516Z,9.23
2018-09-13T04:51:45.897Z,9.37
2018-09-13T04:54:14.367Z,9.10
2018-09-13T04:56:42.850Z,12.20
2018-09-13T04:59:11.345Z,11.00
2018-09-13T05:01:41.283Z,10.07
2018-09-13T05:04:10.130Z,11.10
2018-09-13T05:06:38.697Z,12.43
2018-09-13T05:09:11.069Z,12.77
2018-09-13T05:11:39.578Z,12.50
2018-09-13T05:14:08.051Z,12.87
2018-09-13T05:16:36.523Z,15.50
2018-09-13T05:19:05.065Z,12.40
2018-09-13T05:21:34.018Z,11.87
2018-09-13T05:24:02.907Z,12.60
2018-09-13T05:26:31.386Z,12.60
2018-09-13T05:28:59.888Z,12.57
2018-09-13T05:31:28.356Z,12.10
2018-09-13T05:33:56.823Z,13.80
2018-09-13T05:36:25.263Z,12.20
2018-09-13T05:38:53.794Z,12.90
2018-09-13T05:41:22.224Z,12.93
2018-09-13T05:43:50.691Z,12.67
2018-09-13T05:46:19.172Z,14.67
2018-09-13T05:48:47.603Z,15.43
2018-09-13T05:51:16.145Z,13.83
2018-09-13T05:53:44.611Z,13.60
2018-09-13T05:56:13.050Z,13.63
2018-09-13T05:58:41.507Z,12.03
2018-09-13T06:01:10.018Z,12.13
2018-09-13T06:03:38.488Z,11.80
2018-09-13T06:06:06.955Z,11.70
2018-09-13T06:08:35.464Z,12.87
2018-09-13T06:11:03.950Z,11.30
2018-09-13T06:13:32.512Z,13.60
2018-09-13T06:16:00.923Z,11.43
2018-09-13T06:18:29.399Z,11.70
2018-09-13T06:20:57.979Z,10.73
2018-09-13T06:23:26.482Z,9.73
2018-09-13T06:25:54.914Z,10.87
2018-09-13T06:28:23.443Z,11.33
2018-09-13T06:30:52.016Z,10.93
2018-09-13T06:33:20.531Z,12.60
2018-09-13T06:35:49.052Z,11.37
2018-09-13T06:38:17.594Z,11.07
2018-09-13T06:40:46.105Z,11.07
2018-09-13T06:43:14.946Z,11.10
2018-09-13T06:45:43.466Z,11.90
2018-09-13T06:48:12.123Z,10.10
2018-09-13T06:50:40.626Z,11.30
2018-09-13T06:53:09.088Z,10.43
2018-09-13T06:55:37.594Z,10.00
2018-09-13T06:58:06.101Z,11.00
2018-09-13T07:00:35.070Z,11.33
2018-09-13T07:03:03.612Z,10.50
2018-09-13T07:05:32.105Z,10.57
2018-09-13T07:08:00.590Z,11.60
2018-09-13T07:10:29.132Z,10.73
2018-09-13T07:12:57.636Z,10.83
2018-09-13T07:15:26.130Z,9.60
2018-09-13T07:17:54.635Z,10.50
2018-09-13T07:20:23.078Z,11.40
2018-09-13T07:22:51.610Z,10.90
2018-09-13T07:25:20.083Z,9.80
2018-09-13T07:27:48.588Z,10.10
2018-09-13T07:30:17.081Z,10.27
2018-09-13T07:32:45.541Z,8.87
2018-09-13T07:35:14.046Z,7.90
2018-09-13T07:37:42.506Z,8.43
2018-09-13T07:40:10.964Z,7.33
2018-09-13T07:42:39.526Z,7.87
2018-09-13T07:45:07.923Z,7.30
2018-09-13T07:47:36.437Z,8.10
2018-09-13T07:50:04.975Z,6.90
2018-09-13T07:52:33.554Z,8.30
2018-09-13T07:55:02.047Z,7.90
2018-09-13T07:57:30.530Z,7.40
2018-09-13T07:59:59.107Z,7.87
2018-09-13T08:02:27.599Z,7.60
2018-09-13T08:04:56.088Z,8.27
2018-09-13T08:07:24.525Z,7.70
2018-09-13T08:09:53.091Z,8.67
2018-09-13T08:12:21.588Z,8.87
2018-09-13T08:14:50.090Z,7.30
2018-09-13T08:17:18.616Z,8.43
2018-09-13T08:19:47.068Z,8.73
2018-09-13T08:22:15.674Z,8.10
2018-09-13T08:24:44.133Z,8.37
2018-09-13T08:27:12.594Z,8.20
2018-09-13T08:29:41.055Z,9.17
2018-09-13T08:32:09.555Z,8.10
2018-09-13T08:34:38.018Z,8.40
2018-09-13T08:37:06.595Z,8.23
2018-09-13T08:39:35.019Z,7.60
2018-09-13T08:42:03.492Z,8.47
2018-09-13T08:44:31.972Z,8.27
2018-09-13T08:47:00.455Z,8.00
2018-09-13T08:49:28.951Z,9.20
2018-09-13T08:51:57.514Z,8.40
2018-09-13T08:54:25.878Z,8.03
2018-09-13T08:56:54.328Z,9.47
2018-09-13T08:59:22.799Z,8.47
2018-09-13T09:01:51.234Z,8.40
2018-09-13T09:04:19.742Z,8.10
2018-09-13T09:06:48.207Z,8.60
2018-09-13T09:09:16.702Z,8.50
2018-09-13T09:11:45.165Z,9.53
2018-09-13T09:14:13.641Z,7.90
2018-09-13T09:16:42.114Z,8.63
2018-09-13T09:19:10.567Z,7.97
2018-09-13T09:21:39.023Z,7.87
2018-09-13T09:24:07.665Z,8.73
2018-09-13T09:26:36.124Z,7.53
2018-09-13T09:29:04.756Z,6.97
2018-09-13T09:31:33.173Z,6.90
2018-09-13T09:34:01.648Z,7.23
2018-09-13T09:36:30.175Z,6.97
2018-09-13T09:38:58.682Z,6.70
2018-09-13T09:41:27.205Z,6.77
2018-09-13T09:43:55.802Z,7.70
2018-09-13T09:46:24.278Z,7.43
2018-09-13T09:48:52.762Z,6.43
2018-09-13T09:51:21.251Z,5.20
2018-09-13T09:53:49.708Z,4.40
2018-09-13T09:56:18.253Z,4.13
2018-09-13T09:58:46.638Z,4.30
2018-09-13T10:01:20.280Z,4.83
2018-09-13T10:03:48.791Z,4.27
2018-09-13T10:06:17.307Z,4.33
2018-09-13T10:08:45.846Z,4.10
2018-09-13T10:11:14.319Z,4.20
2018-09-13T10:13:42.813Z,4.00
2018-09-13T10:16:16.767Z,5.33
2018-09-13T10:18:46.445Z,4.10
2018-09-13T10:22:24.235Z,5.20
2018-09-13T10:24:58.046Z,4.50
2018-09-13T10:27:31.777Z,4.90
2018-09-13T10:30:05.640Z,5.20
2018-09-13T10:32:39.483Z,6.77
2018-09-13T10:35:13.429Z,6.47
2018-09-13T10:37:47.105Z,7.20
2018-09-13T10:40:21.110Z,7.73
2018-09-13T10:42:55.043Z,7.67
2018-09-13T10:45:28.879Z,7.50
2018-09-13T10:48:02.783Z,7.17
2018-09-13T10:50:35.577Z,5.77
2018-09-13T10:53:09.309Z,5.40
2018-09-13T10:55:37.904Z,5.40
2018-09-13T10:58:06.336Z,6.00
2018-09-13T11:00:34.816Z,5.20
2018-09-13T11:03:03.283Z,5.13
2018-09-13T11:05:31.848Z,5.97
2018-09-13T11:08:00.276Z,5.53
2018-09-13T11:10:29.021Z,5.50
2018-09-13T11:13:01.051Z,5.20
2018-09-13T11:15:36.233Z,6.10
2018-09-13T11:18:06.143Z,5.43
2018-09-13T11:20:34.799Z,5.10
2018-09-13T11:23:03.280Z,5.40
2018-09-13T11:25:31.768Z,6.10
2018-09-13T11:28:00.304Z,5.23
2018-09-13T11:30:28.816Z,4.17
2018-09-13T11:32:57.323Z,5.30
2018-09-13T11:35:25.824Z,4.43
2018-09-13T11:37:54.330Z,4.87
2018-09-13T11:40:22.849Z,4.87
2018-09-13T11:42:51.311Z,5.13
2018-09-13T11:45:19.902Z,5.60
2018-09-13T11:47:49.022Z,5.23
2018-09-13T11:50:17.526Z,5.27
2018-09-13T11:52:46.014Z,6.20
2018-09-13T11:55:14.547Z,4.70
2018-09-13T11:57:43.159Z,4.70
2018-09-13T12:00:11.635Z,4.07
2018-09-13T12:02:40.090Z,4.80
2018-09-13T12:05:08.622Z,6.10
2018-09-13T12:07:37.105Z,4.90
2018-09-13T12:10:06.207Z,4.80
2018-09-13T12:12:34.694Z,5.10
2018-09-13T12:15:03.204Z,5.17
2018-09-13T12:17:31.690Z,5.83
2018-09-13T12:20:00.172Z,5.20
2018-09-13T12:22:28.753Z,5.90
2018-09-13T12:24:57.158Z,4.87
2018-09-13T12:27:25.780Z,4.80
2018-09-13T12:29:54.281Z,5.37
2018-09-13T12:32:22.814Z,4.90
2018-09-13T12:34:51.319Z,4.23
2018-09-13T12:37:19.779Z,4.70
2018-09-13T12:39:48.262Z,4.67
2018-09-13T12:42:16.705Z,5.40
2018-09-13T12:44:45.206Z,5.03
2018-09-13T12:47:13.794Z,5.07
2018-09-13T12:49:42.291Z,4.27
2018-09-13T12:52:10.754Z,4.43
2018-09-13T12:54:39.246Z,5.40
2018-09-13T12:57:07.780Z,4.53
2018-09-13T12:59:36.263Z,5.00
2018-09-13T13:02:04.833Z,7.27
2018-09-13T13:04:33.326Z,5.63
2018-09-13T13:07:01.819Z,5.63
2018-09-13T13:09:30.259Z,5.70
2018-09-13T13:11:58.767Z,5.10
2018-09-13T13:14:27.249Z,4.80
2018-09-13T13:16:55.813Z,5.07
2018-09-13T13:19:24.254Z,3.87
2018-09-13T13:21:52.745Z,4.63
2018-09-13T13:24:21.231Z,4.00
2018-09-13T13:26:49.746Z,4.17
2018-09-13T13:29:18.218Z,4.37
2018-09-13T13:31:46.670Z,4.20
2018-09-13T13:34:15.208Z,3.47
2018-09-13T13:36:43.692Z,4.13
2018-09-13T13:39:12.227Z,2.80
2018-09-13T13:41:40.714Z,3.00
2018-09-13T13:44:09.216Z,2.87
2018-09-13T13:46:37.714Z,2.43
2018-09-13T13:49:06.331Z,2.00
2018-09-13T13:51:34.806Z,2.10
2018-09-13T13:54:03.329Z,2.27
2018-09-13T13:56:31.782Z,2.40
2018-09-13T13:59:00.266Z,2.40
2018-09-13T14:01:28.798Z,3.77
2018-09-13T14:03:57.600Z,2.97
2018-09-13T14:06:26.954Z,2.73
2018-09-13T14:08:55.439Z,2.53
2018-09-13T14:11:23.946Z,3.20
2018-09-13T14:13:52.539Z,3.10
2018-09-13T14:16:21.015Z,3.20
2018-09-13T14:18:49.507Z,3.97
2018-09-13T14:21:18.014Z,3.43
2018-09-13T14:23:46.506Z,3.70
2018-09-13T14:26:15.006Z,3.60
2018-09-13T14:28:43.526Z,3.50
2018-09-13T14:31:12.032Z,4.53
2018-09-13T14:33:40.503Z,3.40
2018-09-13T14:36:08.980Z,3.27
2018-09-13T14:38:37.512Z,3.60
2018-09-13T14:41:06.255Z,3.40
2018-09-13T14:43:34.690Z,4.10
2018-09-13T14:46:03.248Z,3.40
2018-09-13T14:48:31.683Z,5.13
2018-09-13T14:51:00.202Z,3.97
2018-09-13T14:53:28.705Z,4.43
2018-09-13T14:55:57.212Z,3.30
2018-09-13T14:58:25.636Z,3.70
2018-09-13T15:00:54.170Z,2.80
2018-09-13T15:03:22.711Z,3.10
2018-09-13T15:05:51.170Z,3.77
2018-09-13T15:08:19.615Z,4.30
2018-09-13T15:10:48.103Z,3.70
2018-09-13T15:13:16.570Z,4.73
2018-09-13T15:15:45.050Z,4.23
2018-09-13T15:18:13.504Z,4.90
2018-09-13T15:20:41.952Z,4.13
2018-09-13T15:23:10.407Z,5.70
2018-09-13T15:25:38.856Z,5.47
2018-09-13T15:28:07.367Z,5.03
2018-09-13T15:30:35.844Z,5.97
2018-09-13T15:33:04.358Z,5.40
2018-09-13T15:35:32.878Z,6.03
2018-09-13T15:38:01.305Z,6.13
2018-09-13T15:40:29.784Z,6.03
2018-09-13T15:42:58.245Z,6.53
2018-09-13T15:45:26.788Z,5.83
2018-09-13T15:47:55.210Z,7.87
2018-09-13T15:50:23.724Z,6.97
2018-09-13T15:52:52.296Z,5.60
2018-09-13T15:55:20.726Z,6.53
2018-09-13T15:57:49.226Z,6.37
2018-09-13T16:00:17.690Z,5.80
2018-09-13T16:02:46.118Z,5.50
2018-09-13T16:05:14.638Z,5.47
2018-09-13T16:07:43.095Z,4.23
2018-09-13T16:10:11.578Z,4.97
2018-09-13T16:12:40.147Z,4.47
2018-09-13T16:15:08.566Z,3.77
2018-09-13T16:17:37.054Z,5.43
2018-09-13T16:20:05.763Z,4.23
2018-09-13T16:22:34.119Z,4.33
2018-09-13T16:25:02.578Z,3.70
2018-09-13T16:27:31.051Z,4.60
2018-09-13T16:29:59.515Z,4.50
2018-09-13T16:32:27.983Z,4.27
2018-09-13T16:34:56.561Z,4.20
2018-09-13T16:37:30.381Z,3.27
2018-09-13T16:40:04.276Z,3.57
2018-09-13T16:42:42.857Z,3.10
2018-09-13T16:45:11.764Z,4.17
2018-09-13T16:47:45.871Z,3.97
2018-09-13T16:50:14.388Z,3.83
2018-09-13T16:52:42.855Z,3.27
2018-09-13T16:55:11.332Z,3.40
2018-09-13T16:57:39.838Z,3.03
2018-09-13T17:00:08.296Z,2.77
2018-09-13T17:02:36.762Z,3.13
2018-09-13T17:05:05.297Z,3.27
2018-09-13T17:07:33.856Z,2.63
2018-09-13T17:10:02.317Z,3.10
2018-09-13T17:12:30.837Z,3.47
2018-09-13T17:14:59.393Z,3.50
2018-09-13T17:17:27.907Z,3.80
2018-09-13T17:19:56.419Z,4.20
2018-09-13T17:22:24.900Z,3.60
2018-09-13T17:24:53.461Z,2.80
2018-09-13T17:27:21.920Z,3.50
2018-09-13T17:29:50.406Z,3.20
2018-09-13T17:32:18.933Z,3.07
2018-09-13T17:34:47.457Z,3.40
2018-09-13T17:37:15.947Z,3.73
2018-09-13T17:39:44.441Z,3.73
2018-09-13T17:42:12.967Z,4.33
2018-09-13T17:44:41.454Z,4.67
2018-09-13T17:47:09.946Z,3.70
2018-09-13T17:49:38.460Z,4.47
2018-09-13T17:52:07.014Z,4.43
2018-09-13T17:54:35.498Z,3.73
2018-09-13T17:57:04.042Z,3.87
2018-09-13T17:59:32.539Z,4.10
2018-09-13T18:02:01.006Z,4.10
2018-09-13T18:04:29.471Z,3.83
2018-09-13T18:06:57.946Z,4.67
2018-09-13T18:09:26.467Z,5.67
2018-09-13T18:11:54.979Z,6.33
2018-09-13T18:14:23.457Z,5.90
2018-09-13T18:16:51.970Z,5.80
2018-09-13T18:19:20.454Z,5.63
2018-09-13T18:21:49.015Z,5.70
2018-09-13T18:24:17.580Z,5.40
2018-09-13T18:26:46.082Z,6.50
2018-09-13T18:29:14.644Z,4.87
2018-09-13T18:31:43.143Z,5.10
2018-09-13T18:34:11.686Z,6.47
2018-09-13T18:36:40.186Z,5.60
2018-09-13T18:39:09.938Z,4.90
2018-09-13T18:41:38.475Z,6.07
2018-09-13T18:44:07.126Z,6.07
2018-09-13T18:46:35.679Z,5.10
2018-09-13T18:49:04.187Z,5.70
2018-09-13T18:51:32.863Z,6.50
2018-09-13T18:54:01.393Z,5.30
2018-09-13T18:56:29.863Z,5.40
2018-09-13T18:58:58.339Z,5.70
2018-09-13T19:01:26.922Z,4.83
2018-09-13T19:03:55.433Z,6.10
2018-09-13T19:06:23.902Z,4.10
2018-09-13T19:08:52.410Z,4.13
2018-09-13T19:11:21.181Z,4.97
2018-09-13T19:13:49.600Z,5.07
2018-09-13T19:16:18.126Z,5.83
2018-09-13T19:18:46.654Z,5.80
2018-09-13T19:21:15.158Z,5.70
2018-09-13T19:23:43.734Z,5.63
2018-09-13T19:26:12.243Z,6.67
2018-09-13T19:28:40.786Z,7.90
2018-09-13T19:31:09.335Z,8.40
2018-09-13T19:33:38.156Z,7.07
2018-09-13T19:36:06.767Z,7.43
2018-09-13T19:38:35.320Z,8.00
2018-09-13T19:41:03.859Z,8.07
2018-09-13T19:43:32.424Z,8.37
2018-09-13T19:46:00.917Z,8.80
2018-09-13T19:48:29.423Z,8.27
2018-09-13T19:50:58.016Z,7.50
2018-09-13T19:53:26.440Z,7.37
2018-09-13T19:55:55.031Z,8.87
2018-09-13T19:58:23.547Z,8.60
2018-09-13T20:00:52.022Z,7.27
2018-09-13T20:03:20.648Z,8.63
2018-09-13T20:05:49.133Z,7.97
2018-09-13T20:08:17.603Z,7.50
2018-09-13T20:10:46.085Z,6.93
2018-09-13T20:13:14.572Z,6.93
2018-09-13T20:15:43.107Z,7.50
2018-09-13T20:18:11.631Z,7.40
2018-09-13T20:20:40.123Z,8.17
2018-09-13T20:23:08.688Z,8.87
2018-09-13T20:25:37.132Z,8.83
2018-09-13T20:28:05.656Z,7.23
2018-09-13T20:30:34.137Z,8.70
2018-09-13T20:33:02.676Z,7.80
2018-09-13T20:35:31.173Z,8.80
2018-09-13T20:37:59.611Z,9.20
2018-09-13T20:40:28.106Z,9.70
2018-09-13T20:42:56.571Z,9.50
2018-09-13T20:45:25.108Z,8.87
2018-09-13T20:47:53.529Z,9.97
2018-09-13T20:50:23.003Z,9.87
2018-09-13T20:52:51.494Z,10.10
2018-09-13T20:55:19.979Z,11.30
2018-09-13T20:57:48.483Z,8.60
2018-09-13T21:00:19.679Z,8.90
2018-09-13T21:02:49.510Z,9.50
2018-09-13T21:05:18.698Z,8.83
2018-09-13T21:07:47.291Z,7.50
2018-09-13T21:10:15.766Z,8.80
2018-09-13T21:12:44.283Z,8.40
2018-09-13T21:15:12.762Z,8.60
2018-09-13T21:17:41.221Z,8.60
2018-09-13T21:20:09.714Z,9.00
2018-09-13T21:22:38.248Z,9.40
2018-09-13T21:25:06.758Z,9.67
2018-09-13T21:27:35.246Z,10.27
2018-09-13T21:30:03.778Z,10.27
2018-09-13T21:32:32.255Z,9.73
2018-09-13T21:35:00.782Z,10.27
2018-09-13T21:37:29.259Z,10.77
2018-09-13T21:39:57.755Z,11.53
2018-09-13T21:42:26.271Z,12.40
2018-09-13T21:44:54.750Z,12.30
2018-09-13T21:47:23.223Z,14.17
2018-09-13T21:49:51.671Z,13.50
2018-09-13T21:52:20.163Z,13.37
2018-09-13T21:54:48.643Z,13.63
2018-09-13T21:57:17.090Z,14.13
2018-09-13T21:59:45.589Z,13.57
2018-09-13T22:02:14.042Z,14.53
2018-09-13T22:04:42.513Z,14.27
2018-09-13T22:07:11.022Z,16.40
2018-09-13T22:09:39.487Z,15.50
2018-09-13T22:12:08.030Z,14.40
2018-09-13T22:14:36.503Z,14.70
2018-09-13T22:17:05.083Z,15.20
2018-09-13T22:19:33.554Z,14.90
2018-09-13T22:22:02.983Z,14.67
2018-09-13T22:24:31.455Z,13.33
2018-09-13T22:26:59.908Z,13.70
2018-09-13T22:29:28.414Z,14.10
2018-09-13T22:31:56.877Z,14.17
2018-09-13T22:34:25.459Z,15.23
2018-09-13T22:36:53.910Z,14.40
2018-09-13T22:39:22.450Z,13.57
2018-09-13T22:41:50.979Z,14.40
2018-09-13T22:44:19.493Z,13.50
2018-09-13T22:46:47.951Z,14.40
2018-09-13T22:49:16.442Z,16.23
2018-09-13T22:51:44.930Z,17.50
2018-09-13T22:54:13.391Z,14.43
2018-09-13T22:56:41.847Z,15.10
2018-09-13T22:59:10.334Z,15.30
2018-09-13T23:01:38.795Z,15.07
2018-09-13T23:04:07.539Z,13.63
2018-09-13T23:06:36.022Z,14.93
2018-09-13T23:09:07.071Z,14.63
2018-09-13T23:11:35.589Z,16.13
2018-09-13T23:14:04.083Z,20.17
2018-09-13T23:16:32.690Z,24.07
2018-09-13T23:19:01.134Z,20.03
2018-09-13T23:21:29.611Z,22.50
2018-09-13T23:23:58.311Z,29.40
2018-09-13T23:26:26.781Z,25.30
2018-09-13T23:28:55.271Z,27.60
2018-09-13T23:31:23.874Z,28.80
2018-09-13T23:33:52.371Z,29.43
2018-09-13T23:36:21.257Z,27.93
2018-09-13T23:38:49.715Z,28.27
2018-09-13T23:41:18.260Z,31.30
2018-09-13T23:43:46.870Z,30.60
2018-09-13T23:46:15.463Z,32.53
2018-09-13T23:48:43.898Z,31.50
2018-09-13T23:51:12.398Z,29.20
2018-09-13T23:53:40.914Z,32.73
2018-09-13T23:56:09.434Z,29.80
2018-09-13T23:58:37.877Z,29.73
